Latest Weather Observations for Sydney Airport

IDN60801

Issued at 3:43 pm EDT Sunday 5 December 2021 (issued every 10 minutes, with the page automatically refreshed every 10 minutes)

About weather observations | Map of weather stations | Latest weather observations for NSW | Other Formats
Station Details ID: 066037 Name: SYDNEY AIRPORT AMO Lat: -33.95 Lon: 151.17 Height: 6.0 m
Data from the previous 72 hours. | See also: Recent months at Sydney Airport
Date/Time
EDT
Temp
°C
App
Temp
°C
Dew
Point
°C
Rel
Hum
%
Delta-T
°C
Wind Press
QNH
hPa
Press
MSL
hPa
Rain since
9am
mm
Dir  Spd
km/h
Gust
km/h
Spd
kts
Gust
kts
05/03:30pm 18.7 13.1 8.9 53 5.1 SE 28 37 15 20 1022.0 1022.0 0.6
05/03:00pm 18.9 13.7 10.2 57 4.6 SE 28 35 15 19 1022.2 1022.2 0.6
05/02:30pm 18.6 12.9 9.9 57 4.6 SE 30 37 16 20 1022.2 1022.2 0.6
05/02:00pm 18.6 13.3 9.9 57 4.6 SE 28 33 15 18 1022.2 1022.2 0.6
05/01:30pm 18.6 13.6 10.9 61 4.2 SE 28 35 15 19 1022.2 1022.2 0.6
05/01:00pm 19.4 14.6 11.7 61 4.2 SE 28 35 15 19 1022.2 1022.2 0.6
05/12:30pm 18.7 13.6 10.5 59 4.4 SE 28 35 15 19 1022.2 1022.2 0.6
05/12:00pm 18.8 13.8 12.3 66 3.6 SE 30 35 16 19 1022.3 1022.3 0.6
05/11:30am 19.0 14.8 12.3 65 3.7 ESE 26 33 14 18 1022.2 1022.2 0.6
05/11:00am 18.5 14.0 12.7 69 3.2 SE 28 35 15 19 1022.1 1022.1 0.6
05/10:30am 17.6 15.2 13.9 79 2.1 S 19 26 10 14 1022.0 1022.0 0.6
05/10:00am 17.0 14.4 14.8 87 1.3 SSW 22 28 12 15 1021.8 1021.8 0.6
05/09:30am 16.4 13.3 14.4 88 1.1 SSW 24 33 13 18 1021.8 1021.8 0.4
05/09:00am 17.1 13.4 14.0 82 1.8 SSW 26 35 14 19 1021.7 1021.7 0.8
05/08:30am 17.0 13.2 13.7 81 1.9 SSW 26 32 14 17 1021.6 1021.6 0.8
05/08:00am 17.9 13.6 13.2 74 2.6 SE 28 33 15 18 1021.3 1021.3 0.8
05/07:30am 17.4 13.0 14.1 81 1.9 SSE 30 35 16 19 1020.7 1020.7 0.8
05/07:00am 18.0 14.4 13.1 73 2.7 SSE 24 30 13 16 1020.2 1020.2 0.0
05/06:30am 18.5 14.7 12.5 68 3.3 SSE 24 30 13 16 1019.7 1019.7 0.0
05/06:00am 18.1 12.5 10.0 59 4.3 SSE 30 39 16 21 1019.5 1019.5 0.0
05/05:30am 18.4 13.1 11.2 63 3.9 SSE 30 37 16 20 1019.3 1019.3 0.0
05/05:00am 18.5 13.5 11.1 62 4.0 SSE 28 35 15 19 1019.2 1019.2 0.0
05/04:30am 18.3 12.4 10.4 60 4.2 SE 32 37 17 20 1019.2 1019.2 0.0
05/04:00am 18.5 13.2 11.3 63 3.9 SSE 30 39 16 21 1019.1 1019.1 0.0
05/03:34am 18.3 13.8 12.5 69 3.2 SSE 28 48 15 26 1019.0 1019.0 0.0
05/03:30am 18.3 13.4 11.4 64 3.8 SSE 28 43 15 23 1019.0 1019.0 0.0
05/03:00am 17.3 11.9 12.8 75 2.5 SE 33 48 18 26 1019.2 1019.2 0.0
05/02:42am 18.0 12.2 11.6 66 3.5 SE 33 52 18 28 1019.2 1019.2 0.0
05/02:30am 17.9 12.3 12.1 69 3.2 SE 33 48 18 26 1019.1 1019.1 0.0
05/02:00am 18.2 12.5 11.0 63 3.9 SSE 32 44 17 24 1019.3 1019.3 0.0
05/01:30am 18.7 13.0 11.8 64 3.8 SSE 33 41 18 22 1019.2 1019.2 0.0
05/01:00am 18.5 12.8 11.1 62 4.0 SSE 32 41 17 22 1019.4 1019.4 0.0
05/12:30am 18.3 13.7 11.1 63 3.9 SSE 26 39 14 21 1019.5 1019.5 0.0
05/12:00am 17.6 12.4 13.5 77 2.3 SSE 33 44 18 24 1019.9 1019.9 0.0
 
Date/Time
EDT
Temp
°C
App
Temp
°C
Dew
Point
°C
Rel
Hum
%
Delta-T
°C
Wind Press
QNH
hPa
Press
MSL
hPa
Rain since
9am
mm
Dir  Spd
km/h
Gust
km/h
Spd
kts
Gust
kts
04/11:30pm 17.5 12.7 13.0 75 2.5 SSE 30 37 16 20 1019.7 1019.7 0.0
04/11:00pm 17.5 12.5 15.1 86 1.4 SSE 35 44 19 24 1019.4 1019.4 0.0
04/10:30pm 18.2 12.2 14.5 79 2.1 S 39 52 21 28 1018.9 1018.9 0.0
04/10:00pm 18.0 13.4 14.7 81 1.9 SSE 32 43 17 23 1018.8 1018.8 0.0
04/09:30pm 17.7 12.6 15.7 88 1.2 SSE 37 48 20 26 1018.3 1018.3 0.0
04/09:00pm 19.2 14.0 14.5 74 2.7 SSE 35 46 19 25 1017.6 1017.6 0.0
04/08:30pm 19.4 14.2 14.4 73 2.9 SSE 35 46 19 25 1017.1 1017.1 0.0
04/08:00pm 19.3 14.5 14.6 74 2.7 SSE 33 43 18 23 1016.6 1016.6 0.0
04/07:30pm 19.4 14.6 14.6 74 2.8 SSE 33 43 18 23 1016.1 1016.1 0.0
04/07:00pm 19.6 14.4 14.6 73 2.9 SSE 35 46 19 25 1015.4 1015.4 0.0
04/06:30pm 19.6 14.3 15.3 76 2.5 SSE 37 46 20 25 1014.9 1014.9 0.0
04/06:00pm 19.2 13.8 15.9 81 2.0 SSE 39 50 21 27 1014.5 1014.5 0.0
04/05:30pm 19.6 13.9 16.3 81 2.0 SSE 41 50 22 27 1013.9 1013.9 0.0
04/05:00pm 19.4 13.6 15.9 80 2.1 S 41 54 22 29 1013.7 1013.7 0.0
04/04:30pm 19.4 13.1 15.7 79 2.2 S 43 50 23 27 1013.7 1013.7 0.0
04/04:00pm 19.6 14.2 16.1 80 2.1 S 39 50 21 27 1013.6 1013.6 0.0
04/03:30pm 19.8 14.7 15.9 78 2.3 S 37 52 20 28 1013.5 1013.5 0.0
04/03:00pm 20.0 14.1 14.6 71 3.1 S 39 50 21 27 1013.5 1013.5 0.0
04/02:30pm 20.1 14.0 15.1 73 2.9 S 41 50 22 27 1013.4 1013.4 0.0
04/02:00pm 20.3 14.9 15.1 72 3.1 S 37 50 20 27 1013.6 1013.6 0.0
04/01:30pm 20.2 14.7 14.8 71 3.2 S 37 46 20 25 1013.7 1013.7 0.0
04/01:00pm 19.7 14.3 14.9 74 2.8 S 37 46 20 25 1014.0 1014.0 0.0
04/12:30pm 19.6 14.8 15.7 78 2.3 S 35 43 19 23 1014.0 1014.0 0.0
04/12:00pm 19.3 14.6 15.8 80 2.1 S 35 43 19 23 1014.0 1014.0 0.0
04/11:30am 19.3 14.8 16.5 84 1.7 S 35 41 19 22 1014.1 1014.1 0.0
04/11:00am 19.2 15.2 16.6 85 1.6 S 33 39 18 21 1013.9 1013.9 0.0
04/10:30am 19.1 15.4 16.9 87 1.3 S 32 39 17 21 1014.0 1014.0 0.0
04/10:00am 18.9 14.9 16.7 87 1.3 S 33 41 18 22 1013.9 1013.9 0.0
04/09:30am 19.0 15.5 16.6 86 1.4 S 30 35 16 19 1013.8 1013.8 0.0
04/09:00am 18.9 15.8 16.5 86 1.4 S 28 33 15 18 1013.8 1013.8 0.0
04/08:48am 18.8 16.0 16.4 86 1.4 S 26 32 14 17 1013.7 1013.7 0.0
04/08:30am 18.9 16.3 16.9 88 1.2 S 26 32 14 17 1013.8 1013.8 0.0
04/08:00am 18.3 16.0 16.6 90 1.0 S 24 32 13 17 1013.9 1013.9 0.0
04/07:30am 18.1 15.8 16.6 91 0.9 SSW 24 30 13 16 1013.8 1013.8 0.0
04/07:00am 17.9 15.2 16.6 92 0.8 SSW 26 32 14 17 1013.6 1013.6 0.0
04/06:30am 18.0 15.3 16.7 92 0.8 SSW 26 33 14 18 1013.5 1013.5 0.0
04/06:00am 18.1 15.9 16.8 92 0.8 SSW 24 30 13 16 1013.1 1013.1 0.0
04/05:30am 17.9 15.5 16.4 91 0.9 SSW 24 30 13 16 1013.1 1013.1 0.0
04/05:00am 18.1 16.2 16.6 91 0.9 SSW 22 30 12 16 1012.9 1012.9 0.0
04/04:30am 18.1 16.2 16.6 91 0.9 SSW 22 30 12 16 1013.1 1013.1 0.0
04/04:00am 18.1 16.1 16.4 90 1.0 SSW 22 30 12 16 1013.3 1013.3 0.0
04/03:30am 18.1 15.7 16.4 90 1.0 SSW 24 30 13 16 1013.5 1013.5 0.0
04/03:00am 18.0 15.9 16.3 90 1.0 SSW 22 28 12 15 1013.8 1013.8 0.0
04/02:30am 18.2 16.8 16.5 90 1.0 SSW 19 24 10 13 1014.1 1014.1 0.0
04/02:00am 18.2 16.6 16.5 90 1.0 SSW 20 26 11 14 1014.5 1014.5 0.0
04/01:30am 18.2 16.7 16.4 89 1.1 SSW 19 26 10 14 1015.1 1015.1 0.0
04/01:00am 18.3 16.9 16.6 90 1.0 SSW 19 26 10 14 1015.2 1015.2 0.0
04/12:30am 18.1 17.0 16.4 90 1.0 S 17 24 9 13 1015.1 1015.1 0.0
04/12:00am 18.2 15.8 16.4 89 1.1 SSW 24 33 13 18 1016.1 1016.1 0.0
 
Date/Time
EDT
Temp
°C
App
Temp
°C
Dew
Point
°C
Rel
Hum
%
Delta-T
°C
Wind Press
QNH
hPa
Press
MSL
hPa
Rain since
9am
mm
Dir  Spd
km/h
Gust
km/h
Spd
kts
Gust
kts
03/11:30pm 18.3 16.8 16.3 88 1.2 S 19 26 10 14 1016.0 1016.0 0.0
03/11:00pm 18.1 15.6 16.1 88 1.2 SW 24 30 13 16 1017.0 1017.0 0.0
03/10:30pm 18.4 16.8 16.4 88 1.2 SSW 20 28 11 15 1016.7 1016.7 0.0
03/10:00pm 18.7 16.2 16.1 85 1.5 SSW 24 32 13 17 1016.5 1016.5 0.0
03/09:30pm 18.6 15.7 16.0 85 1.5 SSW 26 32 14 17 1016.4 1016.4 0.0
03/09:00pm 18.8 15.9 16.2 85 1.5 SSW 26 30 14 16 1016.3 1016.3 0.0
03/08:30pm 18.8 15.7 16.6 87 1.3 SSW 28 33 15 18 1015.9 1015.9 0.0
03/08:00pm 18.4 15.3 16.6 89 1.1 SSW 28 35 15 19 1015.8 1015.8 0.0
03/07:30pm 18.4 14.9 16.6 89 1.1 SSW 30 39 16 21 1016.1 1016.1 0.0
03/07:00pm 18.7 14.4 16.9 89 1.1 SSW 35 44 19 24 1015.9 1015.9 0.0
03/06:30pm 19.0 14.8 17.1 89 1.2 S 35 44 19 24 1015.2 1015.2 0.0
03/06:00pm 19.2 14.8 17.5 90 1.0 S 37 46 20 25 1015.0 1015.0 0.0
03/05:30pm 19.2 15.8 17.7 91 0.9 S 32 39 17 21 1014.7 1014.7 0.0
03/05:00pm 19.4 14.6 17.5 89 1.2 S 39 50 21 27 1014.7 1014.7 0.0
03/04:30pm 19.5 15.5 17.6 89 1.2 S 35 44 19 24 1015.2 1015.2 0.0
03/04:11pm 19.5 15.1 17.6 89 1.2 S 37 48 20 26 1015.1 1015.1 0.0
03/04:00pm 19.6 15.6 17.7 89 1.2 S 35 50 19 27 1015.4 1015.4 0.0
03/03:54pm 19.3 14.8 17.3 88 1.2 S 37 48 20 26 1015.3 1015.3 0.0
03/03:30pm 19.5 15.5 17.6 89 1.2 S 35 48 19 26 1015.2 1015.2 0.0
03/03:00pm 20.2 14.2 17.8 86 1.5 S 46 59 25 32 1015.3 1015.3 0.0
03/02:30pm 20.5 14.4 17.5 83 1.8 S 46 59 25 32 1015.1 1015.1 0.0
03/02:00pm 20.6 14.1 17.6 83 1.8 S 48 61 26 33 1015.4 1015.4 0.0
03/01:45pm 21.0 14.6 17.8 82 2.0 S 48 63 26 34 1015.3 1015.3 0.0
03/01:30pm 21.0 15.0 17.8 82 2.0 S 46 56 25 30 1015.6 1015.6 0.0
03/01:00pm 21.3 15.4 18.1 82 2.0 S 46 57 25 31 1015.8 1015.8 0.0
03/12:30pm 21.6 17.8 18.2 81 2.1 SSE 35 50 19 27 1015.9 1015.9 0.0
03/12:00pm 22.0 18.6 18.2 79 2.4 S 33 41 18 22 1016.0 1016.0 0.0
03/11:49am 21.8 18.0 18.2 80 2.2 SSE 35 46 19 25 1016.1 1016.1 0.0
03/11:30am 22.6 18.3 17.9 75 2.9 S 37 48 20 26 1015.7 1015.7 0.0
03/11:13am 24.0 20.1 17.0 65 4.3 SSE 33 44 18 24 1015.4 1015.4 0.0
03/11:00am 26.9 26.5 17.1 55 6.1 SE 15 26 8 14 1015.0 1015.0 0.0
03/10:30am 25.0 25.9 18.4 66 4.2 S 11 15 6 8 1014.6 1014.6 0.0
03/10:00am 24.7 25.9 16.9 62 4.8 SE 6 13 3 7 1014.3 1014.3 0.0
03/09:30am 25.8 26.6 17.2 59 5.4 W 9 15 5 8 1014.2 1014.2 0.0
03/09:00am 25.0 25.0 17.2 62 4.8 NW 13 17 7 9 1014.2 1014.2 0.0
03/08:30am 24.1 24.6 17.4 66 4.2 WNW 11 15 6 8 1014.4 1014.4 0.0
03/08:00am 23.0 23.4 17.2 70 3.6 NW 11 15 6 8 1014.1 1014.1 0.0
03/07:30am 21.3 21.4 16.5 74 2.9 WNW 11 13 6 7 1014.0 1014.0 0.0
03/07:00am 21.6 21.5 17.0 75 2.8 NNW 13 13 7 7 1013.8 1013.8 0.0
03/06:30am 20.7 21.3 16.9 79 2.3 NW 9 11 5 6 1013.9 1013.9 0.0
03/06:00am 19.9 20.6 16.2 79 2.2 NNE 7 9 4 5 1013.8 1013.8 0.0
03/05:30am 20.2 20.7 16.6 80 2.2 NNE 9 11 5 6 1013.1 1013.1 0.0
03/05:00am 20.3 20.4 16.5 79 2.3 NNE 11 13 6 7 1013.1 1013.1 0.0
03/04:30am 20.2 19.8 16.2 78 2.4 NNE 13 15 7 8 1013.2 1013.2 0.0
03/04:00am 20.2 19.4 16.2 78 2.4 NNE 15 17 8 9 1013.2 1013.2 0.0
03/03:30am 20.1 19.7 16.3 79 2.3 NNE 13 17 7 9 1013.5 1013.5 0.0
03/03:00am 20.2 18.7 16.4 79 2.3 NNE 19 24 10 13 1013.8 1013.8 0.0
03/02:30am 20.1 19.1 16.5 80 2.2 N 17 24 9 13 1014.3 1014.3 0.0
03/02:00am 20.3 19.4 16.9 81 2.1 NNE 17 22 9 12 1014.4 1014.4 0.0
03/01:30am 20.2 20.1 17.0 82 1.9 N 13 15 7 8 1015.0 1015.0 0.0
03/01:00am 20.4 20.3 17.0 81 2.1 N 13 17 7 9 1015.4 1015.4 0.0
03/12:30am 20.7 20.7 17.1 80 2.2 NNW 13 17 7 9 1015.7 1015.7 0.0
03/12:00am 21.0 20.5 17.0 78 2.4 NNW 15 20 8 11 1016.0 1016.0 0.0
 
Date/Time
EDT
Temp
°C
App
Temp
°C
Dew
Point
°C
Rel
Hum
%
Delta-T
°C
Wind Press
QNH
hPa
Press
MSL
hPa
Rain since
9am
mm
Dir  Spd
km/h
Gust
km/h
Spd
kts
Gust
kts
02/11:30pm 21.4 20.3 17.2 77 2.6 N 19 28 10 15 1015.5 1015.5 0.0
02/11:00pm 21.4 20.2 17.6 79 2.3 NNE 20 28 11 15 1015.4 1015.4 0.0
02/10:30pm 21.9 20.5 17.9 78 2.5 NNE 22 30 12 16 1015.6 1015.6 0.0
02/10:00pm 21.9 20.4 17.7 77 2.6 NNE 22 30 12 16 1015.5 1015.5 0.0
02/09:30pm 22.1 19.6 17.2 74 3.0 NNE 26 35 14 19 1015.1 1015.1 0.0
02/09:00pm 22.2 19.0 17.3 74 3.0 NNE 30 39 16 21 1014.8 1014.8 0.0
02/08:30pm 22.5 19.7 17.2 72 3.3 NNE 28 39 15 21 1015.2 1015.2 0.0
02/08:00pm 22.7 19.4 16.9 70 3.6 NNE 30 35 16 19 1015.3 1015.3 0.0
02/07:30pm 23.3 19.5 17.1 68 3.8 NNE 33 44 18 24 1015.1 1015.1 0.0
02/07:00pm 23.7 19.4 17.0 66 4.1 NE 35 41 19 22 1015.2 1015.2 0.0
02/06:30pm 24.2 20.3 16.5 62 4.7 NE 32 39 17 21 1015.0 1015.0 0.0
02/06:00pm 24.7 21.4 16.9 62 4.8 NE 30 37 16 20 1014.7 1014.7 0.0
02/05:30pm 25.1 22.0 17.6 63 4.7 NE 30 37 16 20 1014.7 1014.7 0.0
02/05:00pm 25.9 22.3 17.3 59 5.4 NE 32 37 17 20 1014.8 1014.8 0.0
02/04:30pm 25.9 22.4 17.5 59 5.3 NE 32 39 17 21 1014.8 1014.8 0.0
02/04:00pm 25.2 21.5 16.9 60 5.1 NE 32 39 17 21 1014.9 1014.9 0.0

Other formats

Comma delimited format used in spreadsheet applications
http://www.bom.gov.au/fwo/IDN60801/IDN60801.94767.axf

JavaScript Object Notation format (JSON) in row-major order
http://www.bom.gov.au/fwo/IDN60801/IDN60801.94767.json

Data quality

Most of these data are generated automatically and are frequently updated. Quality checks on data are not normally performed. It is possible for incorrect values to appear. Refer to information at About Latest Weather Observations and please check the disclaimer before using these data.